sensor_id;sensor_type;location;lat;lon;timestamp;pressure;altitude;pressure_sealevel;temperature;humidity
60974;BME280;46846;51.528;5.076;2023-01-16T00:00:08;99088.22;;;4.05;80.53
60974;BME280;46846;51.528;5.076;2023-01-16T00:02:33;99083.06;;;4.02;80.80
60974;BME280;46846;51.528;5.076;2023-01-16T00:04:58;99074.25;;;4.03;80.61
60974;BME280;46846;51.528;5.076;2023-01-16T00:07:23;99070.66;;;4.05;80.43
60974;BME280;46846;51.528;5.076;2023-01-16T00:09:49;99067.19;;;4.05;80.53
60974;BME280;46846;51.528;5.076;2023-01-16T00:12:14;99060.91;;;4.07;80.36
60974;BME280;46846;51.528;5.076;2023-01-16T00:14:39;99062.56;;;4.10;79.94
60974;BME280;46846;51.528;5.076;2023-01-16T00:17:04;99055.78;;;4.04;80.39
60974;BME280;46846;51.528;5.076;2023-01-16T00:19:30;99065.59;;;3.99;81.00
60974;BME280;46846;51.528;5.076;2023-01-16T00:21:55;99049.88;;;3.97;80.60
60974;BME280;46846;51.528;5.076;2023-01-16T00:24:20;99039.41;;;3.96;81.11
60974;BME280;46846;51.528;5.076;2023-01-16T00:26:45;99035.84;;;3.97;80.80
60974;BME280;46846;51.528;5.076;2023-01-16T00:29:14;99033.06;;;4.02;80.44
60974;BME280;46846;51.528;5.076;2023-01-16T00:31:39;99034.94;;;3.98;81.16
60974;BME280;46846;51.528;5.076;2023-01-16T00:34:04;99032.22;;;4.01;80.63
60974;BME280;46846;51.528;5.076;2023-01-16T00:36:30;99019.91;;;4.02;80.42
60974;BME280;46846;51.528;5.076;2023-01-16T00:38:55;99030.41;;;4.02;80.55
60974;BME280;46846;51.528;5.076;2023-01-16T00:41:21;99025.19;;;4.00;80.77
60974;BME280;46846;51.528;5.076;2023-01-16T00:43:46;99023.44;;;4.01;80.62
60974;BME280;46846;51.528;5.076;2023-01-16T00:46:11;99014.59;;;4.03;80.14
60974;BME280;46846;51.528;5.076;2023-01-16T00:48:37;99014.41;;;4.08;80.37
60974;BME280;46846;51.528;5.076;2023-01-16T00:51:02;99008.56;;;4.00;79.99
60974;BME280;46846;51.528;5.076;2023-01-16T00:53:27;99005.06;;;3.99;80.11
60974;BME280;46846;51.528;5.076;2023-01-16T00:55:52;98996.22;;;4.02;80.47
60974;BME280;46846;51.528;5.076;2023-01-16T00:58:18;98994.63;;;3.97;79.96
60974;BME280;46846;51.528;5.076;2023-01-16T01:00:43;98994.38;;;4.04;80.29
60974;BME280;46846;51.528;5.076;2023-01-16T01:03:08;98980.41;;;4.02;80.27
60974;BME280;46846;51.528;5.076;2023-01-16T01:05:37;98968.00;;;4.05;80.27
60974;BME280;46846;51.528;5.076;2023-01-16T01:08:02;98969.72;;;4.06;79.75
60974;BME280;46846;51.528;5.076;2023-01-16T01:10:28;98959.25;;;4.05;80.21
60974;BME280;46846;51.528;5.076;2023-01-16T01:12:53;98957.53;;;4.04;80.08
60974;BME280;46846;51.528;5.076;2023-01-16T01:15:20;98950.69;;;4.00;79.81
60974;BME280;46846;51.528;5.076;2023-01-16T01:17:45;98947.13;;;4.01;79.73
60974;BME280;46846;51.528;5.076;2023-01-16T01:20:10;98944.53;;;3.99;80.30
60974;BME280;46846;51.528;5.076;2023-01-16T01:22:35;98933.97;;;4.01;79.91
60974;BME280;46846;51.528;5.076;2023-01-16T01:25:01;98925.19;;;4.00;79.83
60974;BME280;46846;51.528;5.076;2023-01-16T01:27:26;98925.31;;;3.97;79.96
60974;BME280;46846;51.528;5.076;2023-01-16T01:29:51;98921.59;;;4.03;80.13
60974;BME280;46846;51.528;5.076;2023-01-16T01:32:16;98923.66;;;3.94;80.07
60974;BME280;46846;51.528;5.076;2023-01-16T01:34:42;98913.88;;;3.98;80.23
60974;BME280;46846;51.528;5.076;2023-01-16T01:37:07;98906.78;;;4.00;79.69
60974;BME280;46846;51.528;5.076;2023-01-16T01:39:32;98904.13;;;4.00;79.29
60974;BME280;46846;51.528;5.076;2023-01-16T01:41:58;98892.66;;;4.03;79.54
60974;BME280;46846;51.528;5.076;2023-01-16T01:44:53;98885.63;;;4.03;79.52
60974;BME280;46846;51.528;5.076;2023-01-16T01:47:20;98873.31;;;4.04;79.56
60974;BME280;46846;51.528;5.076;2023-01-16T01:49:47;98873.16;;;4.08;79.13
60974;BME280;46846;51.528;5.076;2023-01-16T01:52:13;98867.16;;;4.05;79.21
60974;BME280;46846;51.528;5.076;2023-01-16T01:54:40;98861.69;;;4.09;79.13
60974;BME280;46846;51.528;5.076;2023-01-16T01:57:30;98852.97;;;4.07;79.47
60974;BME280;46846;51.528;5.076;2023-01-16T01:59:59;98845.94;;;4.08;79.76
60974;BME280;46846;51.528;5.076;2023-01-16T02:02:26;98843.19;;;4.11;79.19
60974;BME280;46846;51.528;5.076;2023-01-16T02:04:55;98837.13;;;4.09;78.96
60974;BME280;46846;51.528;5.076;2023-01-16T02:07:24;98830.22;;;4.06;79.32
60974;BME280;46846;51.528;5.076;2023-01-16T02:09:55;98827.72;;;4.03;79.36
60974;BME280;46846;51.528;5.076;2023-01-16T02:12:24;98826.66;;;4.07;79.25
60974;BME280;46846;51.528;5.076;2023-01-16T02:14:51;98821.66;;;4.01;79.73
60974;BME280;46846;51.528;5.076;2023-01-16T02:17:18;98815.47;;;4.02;78.96
60974;BME280;46846;51.528;5.076;2023-01-16T02:25:49;98793.44;;;4.05;79.37
60974;BME280;46846;51.528;5.076;2023-01-16T02:33:31;98762.75;;;4.04;78.71
60974;BME280;46846;51.528;5.076;2023-01-16T02:38:39;98746.38;;;3.97;79.22
60974;BME280;46846;51.528;5.076;2023-01-16T02:43:52;98738.28;;;4.02;78.91
60974;BME280;46846;51.528;5.076;2023-01-16T02:54:05;98717.44;;;3.97;79.51
60974;BME280;46846;51.528;5.076;2023-01-16T02:57:01;98698.97;;;3.99;79.40
60974;BME280;46846;51.528;5.076;2023-01-16T02:59:30;98696.31;;;3.99;79.07
60974;BME280;46846;51.528;5.076;2023-01-16T03:01:56;98692.88;;;3.96;79.00
60974;BME280;46846;51.528;5.076;2023-01-16T03:04:41;98685.81;;;3.99;79.24
60974;BME280;46846;51.528;5.076;2023-01-16T03:28:06;98614.16;;;3.92;79.10
60974;BME280;46846;51.528;5.076;2023-01-16T03:30:44;98599.22;;;3.92;79.35
60974;BME280;46846;51.528;5.076;2023-01-16T03:33:16;98586.13;;;3.91;79.40
60974;BME280;46846;51.528;5.076;2023-01-16T03:35:49;98580.22;;;3.86;79.04
60974;BME280;46846;51.528;5.076;2023-01-16T03:38:15;98568.84;;;3.85;79.11
60974;BME280;46846;51.528;5.076;2023-01-16T03:40:41;98562.66;;;3.86;79.13
60974;BME280;46846;51.528;5.076;2023-01-16T03:43:10;98553.06;;;3.85;79.24
60974;BME280;46846;51.528;5.076;2023-01-16T03:48:05;98532.78;;;3.87;79.10
60974;BME280;46846;51.528;5.076;2023-01-16T03:50:32;98524.91;;;3.87;78.48
60974;BME280;46846;51.528;5.076;2023-01-16T03:52:59;98519.78;;;3.84;79.22
60974;BME280;46846;51.528;5.076;2023-01-16T03:55:30;98499.44;;;3.88;79.04
60974;BME280;46846;51.528;5.076;2023-01-16T03:58:02;98484.66;;;3.85;78.78
60974;BME280;46846;51.528;5.076;2023-01-16T04:00:35;98482.28;;;3.79;78.88
60974;BME280;46846;51.528;5.076;2023-01-16T04:03:07;98486.50;;;3.83;79.22
60974;BME280;46846;51.528;5.076;2023-01-16T04:05:55;98473.47;;;3.80;78.91
60974;BME280;46846;51.528;5.076;2023-01-16T04:08:25;98461.31;;;3.77;79.10
60974;BME280;46846;51.528;5.076;2023-01-16T04:10:53;98454.34;;;3.76;79.10
60974;BME280;46846;51.528;5.076;2023-01-16T04:13:20;98446.44;;;3.76;79.16
60974;BME280;46846;51.528;5.076;2023-01-16T04:15:47;98436.03;;;3.75;79.00
60974;BME280;46846;51.528;5.076;2023-01-16T04:18:14;98428.13;;;3.75;79.25
60974;BME280;46846;51.528;5.076;2023-01-16T04:20:39;98426.75;;;3.66;79.28
60974;BME280;46846;51.528;5.076;2023-01-16T04:23:06;98414.38;;;3.68;78.89
60974;BME280;46846;51.528;5.076;2023-01-16T04:25:32;98402.38;;;3.62;79.34
60974;BME280;46846;51.528;5.076;2023-01-16T04:27:57;98384.91;;;3.61;79.39
60974;BME280;46846;51.528;5.076;2023-01-16T04:30:22;98384.09;;;3.59;79.63
60974;BME280;46846;51.528;5.076;2023-01-16T04:32:47;98369.38;;;3.55;79.76
60974;BME280;46846;51.528;5.076;2023-01-16T04:35:13;98366.91;;;3.52;79.81
60974;BME280;46846;51.528;5.076;2023-01-16T04:37:38;98359.53;;;3.60;79.64
60974;BME280;46846;51.528;5.076;2023-01-16T04:40:03;98347.97;;;3.63;79.31
60974;BME280;46846;51.528;5.076;2023-01-16T04:42:29;98339.09;;;3.65;79.10
60974;BME280;46846;51.528;5.076;2023-01-16T04:44:54;98337.56;;;3.61;79.39
60974;BME280;46846;51.528;5.076;2023-01-16T04:47:19;98326.38;;;3.56;79.47
60974;BME280;46846;51.528;5.076;2023-01-16T04:49:45;98310.78;;;3.53;79.25
60974;BME280;46846;51.528;5.076;2023-01-16T04:52:13;98303.50;;;3.58;79.59
60974;BME280;46846;51.528;5.076;2023-01-16T04:54:38;98289.28;;;3.62;79.09
60974;BME280;46846;51.528;5.076;2023-01-16T04:57:03;98285.97;;;3.59;79.21
60974;BME280;46846;51.528;5.076;2023-01-16T04:59:29;98269.53;;;3.53;79.68
60974;BME280;46846;51.528;5.076;2023-01-16T05:01:57;98268.53;;;3.56;78.93
60974;BME280;46846;51.528;5.076;2023-01-16T05:04:22;98266.34;;;3.47;79.49
60974;BME280;46846;51.528;5.076;2023-01-16T05:06:47;98244.56;;;3.45;79.74
60974;BME280;46846;51.528;5.076;2023-01-16T05:09:13;98242.41;;;3.53;79.12
60974;BME280;46846;51.528;5.076;2023-01-16T05:11:38;98230.25;;;3.50;79.67
60974;BME280;46846;51.528;5.076;2023-01-16T05:14:04;98225.69;;;3.54;79.25
60974;BME280;46846;51.528;5.076;2023-01-16T05:16:36;98216.81;;;3.57;79.65
60974;BME280;46846;51.528;5.076;2023-01-16T05:19:01;98209.56;;;3.42;79.59
60974;BME280;46846;51.528;5.076;2023-01-16T05:21:26;98194.44;;;3.48;79.80
60974;BME280;46846;51.528;5.076;2023-01-16T05:23:52;98186.50;;;3.49;79.52
60974;BME280;46846;51.528;5.076;2023-01-16T05:26:17;98171.72;;;3.47;79.73
60974;BME280;46846;51.528;5.076;2023-01-16T05:28:42;98167.38;;;3.46;79.21
60974;BME280;46846;51.528;5.076;2023-01-16T05:31:07;98154.00;;;3.50;79.08
60974;BME280;46846;51.528;5.076;2023-01-16T05:33:33;98141.69;;;3.51;79.77
60974;BME280;46846;51.528;5.076;2023-01-16T05:35:58;98137.38;;;3.50;79.67
60974;BME280;46846;51.528;5.076;2023-01-16T05:38:23;98123.47;;;3.48;79.24
60974;BME280;46846;51.528;5.076;2023-01-16T05:40:48;98124.38;;;3.47;79.27
60974;BME280;46846;51.528;5.076;2023-01-16T05:43:14;98117.13;;;3.52;79.34
60974;BME280;46846;51.528;5.076;2023-01-16T05:45:40;98107.44;;;3.52;79.27
60974;BME280;46846;51.528;5.076;2023-01-16T05:48:05;98107.75;;;3.46;79.74
60974;BME280;46846;51.528;5.076;2023-01-16T05:50:30;98097.34;;;3.45;79.37
60974;BME280;46846;51.528;5.076;2023-01-16T05:52:56;98093.78;;;3.46;79.87
60974;BME280;46846;51.528;5.076;2023-01-16T05:55:22;98092.22;;;3.41;79.85
60974;BME280;46846;51.528;5.076;2023-01-16T05:57:47;98082.78;;;3.37;79.40
60974;BME280;46846;51.528;5.076;2023-01-16T06:00:13;98083.31;;;3.44;79.35
60974;BME280;46846;51.528;5.076;2023-01-16T06:02:38;98073.97;;;3.38;79.60
60974;BME280;46846;51.528;5.076;2023-01-16T06:05:04;98076.31;;;3.45;79.90
60974;BME280;46846;51.528;5.076;2023-01-16T06:07:29;98059.25;;;3.34;80.25
60974;BME280;46846;51.528;5.076;2023-01-16T06:09:55;98053.41;;;3.47;79.92
60974;BME280;46846;51.528;5.076;2023-01-16T06:12:20;98051.09;;;3.40;79.98
60974;BME280;46846;51.528;5.076;2023-01-16T06:14:45;98044.19;;;3.38;79.94
60974;BME280;46846;51.528;5.076;2023-01-16T06:17:11;98036.47;;;3.35;79.68
60974;BME280;46846;51.528;5.076;2023-01-16T06:19:39;98031.22;;;3.35;80.02
60974;BME280;46846;51.528;5.076;2023-01-16T06:22:04;98022.34;;;3.37;79.96
60974;BME280;46846;51.528;5.076;2023-01-16T06:24:29;98005.00;;;3.33;80.03
60974;BME280;46846;51.528;5.076;2023-01-16T06:26:55;97990.78;;;3.37;80.16
60974;BME280;46846;51.528;5.076;2023-01-16T06:29:20;97982.03;;;3.37;80.48
60974;BME280;46846;51.528;5.076;2023-01-16T06:31:45;97974.09;;;3.38;79.66
60974;BME280;46846;51.528;5.076;2023-01-16T06:34:11;97964.50;;;3.20;80.82
60974;BME280;46846;51.528;5.076;2023-01-16T06:36:36;97958.88;;;3.27;80.19
60974;BME280;46846;51.528;5.076;2023-01-16T06:39:01;97941.22;;;3.30;80.14
60974;BME280;46846;51.528;5.076;2023-01-16T06:41:26;97924.84;;;3.24;80.33
60974;BME280;46846;51.528;5.076;2023-01-16T06:43:52;97921.38;;;3.24;80.34
60974;BME280;46846;51.528;5.076;2023-01-16T06:46:17;97902.69;;;3.12;81.22
60974;BME280;46846;51.528;5.076;2023-01-16T06:48:42;97891.41;;;3.10;81.32
60974;BME280;46846;51.528;5.076;2023-01-16T06:51:08;97893.88;;;3.13;80.82
60974;BME280;46846;51.528;5.076;2023-01-16T06:53:34;97881.34;;;3.19;81.30
60974;BME280;46846;51.528;5.076;2023-01-16T06:56:00;97882.44;;;3.14;81.32
60974;BME280;46846;51.528;5.076;2023-01-16T06:58:25;97871.00;;;3.16;81.20
60974;BME280;46846;51.528;5.076;2023-01-16T07:00:50;97863.44;;;3.09;81.56
60974;BME280;46846;51.528;5.076;2023-01-16T07:03:16;97851.69;;;3.17;81.26
60974;BME280;46846;51.528;5.076;2023-01-16T07:05:41;97837.63;;;3.18;81.34
60974;BME280;46846;51.528;5.076;2023-01-16T07:08:08;97830.66;;;3.17;81.01
60974;BME280;46846;51.528;5.076;2023-01-16T07:10:33;97819.72;;;3.24;81.07
60974;BME280;46846;51.528;5.076;2023-01-16T07:12:58;97813.97;;;3.18;81.06
60974;BME280;46846;51.528;5.076;2023-01-16T07:15:24;97804.06;;;3.23;80.54
60974;BME280;46846;51.528;5.076;2023-01-16T07:18:10;97788.34;;;3.05;81.53
60974;BME280;46846;51.528;5.076;2023-01-16T07:20:55;97787.41;;;3.06;81.47
60974;BME280;46846;51.528;5.076;2023-01-16T07:23:41;97775.72;;;3.12;81.46
60974;BME280;46846;51.528;5.076;2023-01-16T07:26:07;97773.50;;;3.04;81.27
60974;BME280;46846;51.528;5.076;2023-01-16T07:28:32;97757.13;;;2.99;81.87
60974;BME280;46846;51.528;5.076;2023-01-16T07:30:58;97754.78;;;3.10;81.78
60974;BME280;46846;51.528;5.076;2023-01-16T07:33:23;97741.28;;;3.00;81.70
60974;BME280;46846;51.528;5.076;2023-01-16T07:35:49;97746.41;;;3.04;81.45
60974;BME280;46846;51.528;5.076;2023-01-16T07:38:14;97740.38;;;3.01;81.33
60974;BME280;46846;51.528;5.076;2023-01-16T07:40:39;97735.22;;;3.00;81.42
60974;BME280;46846;51.528;5.076;2023-01-16T07:43:04;97737.84;;;3.00;81.47
60974;BME280;46846;51.528;5.076;2023-01-16T07:45:30;97737.84;;;3.00;81.42
60974;BME280;46846;51.528;5.076;2023-01-16T07:47:55;97729.84;;;3.01;81.98
60974;BME280;46846;51.528;5.076;2023-01-16T07:50:20;97731.78;;;2.98;81.91
60974;BME280;46846;51.528;5.076;2023-01-16T07:52:45;97722.06;;;3.00;82.03
60974;BME280;46846;51.528;5.076;2023-01-16T07:55:11;97704.59;;;2.99;82.16
60974;BME280;46846;51.528;5.076;2023-01-16T07:57:37;97706.91;;;3.05;81.92
60974;BME280;46846;51.528;5.076;2023-01-16T08:00:04;97695.38;;;3.08;81.79
60974;BME280;46846;51.528;5.076;2023-01-16T08:02:29;97690.66;;;3.14;81.57
60974;BME280;46846;51.528;5.076;2023-01-16T08:04:55;97689.72;;;3.16;81.05
60974;BME280;46846;51.528;5.076;2023-01-16T08:07:20;97677.41;;;3.16;81.00
60974;BME280;46846;51.528;5.076;2023-01-16T08:09:46;97674.94;;;2.97;81.72
60974;BME280;46846;51.528;5.076;2023-01-16T08:12:11;97677.44;;;3.00;81.81
60974;BME280;46846;51.528;5.076;2023-01-16T08:14:36;97663.16;;;3.04;81.95
60974;BME280;46846;51.528;5.076;2023-01-16T08:17:04;97668.69;;;3.16;81.36
60974;BME280;46846;51.528;5.076;2023-01-16T08:19:29;97646.06;;;2.97;81.88
60974;BME280;46846;51.528;5.076;2023-01-16T08:21:54;97650.97;;;3.03;81.71
60974;BME280;46846;51.528;5.076;2023-01-16T08:24:19;97644.13;;;3.17;81.10
60974;BME280;46846;51.528;5.076;2023-01-16T08:26:45;97641.50;;;3.17;81.23
60974;BME280;46846;51.528;5.076;2023-01-16T08:29:10;97642.25;;;3.19;81.53
60974;BME280;46846;51.528;5.076;2023-01-16T08:31:35;97625.97;;;3.12;81.26
60974;BME280;46846;51.528;5.076;2023-01-16T08:34:01;97629.44;;;3.12;81.68
60974;BME280;46846;51.528;5.076;2023-01-16T08:36:26;97620.06;;;3.08;81.46
60974;BME280;46846;51.528;5.076;2023-01-16T08:38:51;97623.59;;;3.23;81.31
60974;BME280;46846;51.528;5.076;2023-01-16T08:41:17;97615.28;;;3.31;80.84
60974;BME280;46846;51.528;5.076;2023-01-16T08:44:01;97619.19;;;3.24;80.78
60974;BME280;46846;51.528;5.076;2023-01-16T08:46:46;97618.19;;;3.26;80.96
60974;BME280;46846;51.528;5.076;2023-01-16T08:49:32;97615.53;;;3.26;81.04
60974;BME280;46846;51.528;5.076;2023-01-16T08:52:16;97609.34;;;3.27;81.18
60974;BME280;46846;51.528;5.076;2023-01-16T08:54:42;97607.41;;;3.31;81.09
60974;BME280;46846;51.528;5.076;2023-01-16T08:57:08;97606.81;;;3.26;80.67
60974;BME280;46846;51.528;5.076;2023-01-16T08:59:35;97597.16;;;3.26;80.65
60974;BME280;46846;51.528;5.076;2023-01-16T09:02:00;97593.31;;;3.32;80.83
60974;BME280;46846;51.528;5.076;2023-01-16T09:04:26;97586.19;;;3.34;80.80
60974;BME280;46846;51.528;5.076;2023-01-16T09:06:51;97586.94;;;3.36;80.84
60974;BME280;46846;51.528;5.076;2023-01-16T09:09:18;97585.69;;;3.27;80.95
60974;BME280;46846;51.528;5.076;2023-01-16T09:11:44;97581.53;;;3.23;81.28
60974;BME280;46846;51.528;5.076;2023-01-16T09:14:27;97571.31;;;3.19;81.30
60974;BME280;46846;51.528;5.076;2023-01-16T09:16:53;97571.78;;;3.25;81.36
60974;BME280;46846;51.528;5.076;2023-01-16T09:19:18;97564.50;;;3.31;80.74
60974;BME280;46846;51.528;5.076;2023-01-16T09:21:43;97556.78;;;3.27;81.13
60974;BME280;46846;51.528;5.076;2023-01-16T09:24:08;97557.63;;;3.28;81.55
60974;BME280;46846;51.528;5.076;2023-01-16T09:26:34;97551.34;;;3.31;80.82
60974;BME280;46846;51.528;5.076;2023-01-16T09:28:59;97561.69;;;3.34;80.99
60974;BME280;46846;51.528;5.076;2023-01-16T09:31:24;97546.84;;;3.33;80.87
60974;BME280;46846;51.528;5.076;2023-01-16T09:33:50;97542.25;;;3.36;81.21
60974;BME280;46846;51.528;5.076;2023-01-16T09:36:17;97552.69;;;3.38;81.11
60974;BME280;46846;51.528;5.076;2023-01-16T09:38:42;97551.94;;;3.36;81.17
60974;BME280;46846;51.528;5.076;2023-01-16T09:41:08;97539.63;;;3.36;81.10
60974;BME280;46846;51.528;5.076;2023-01-16T09:43:39;97547.50;;;3.36;81.00
60974;BME280;46846;51.528;5.076;2023-01-16T09:48:33;97540.50;;;3.37;80.83
60974;BME280;46846;51.528;5.076;2023-01-16T09:51:22;97539.53;;;3.38;80.52
60974;BME280;46846;51.528;5.076;2023-01-16T09:56:38;97526.09;;;3.28;81.06
60974;BME280;46846;51.528;5.076;2023-01-16T09:59:33;97523.19;;;3.33;81.32
60974;BME280;46846;51.528;5.076;2023-01-16T10:04:28;97523.03;;;3.36;80.82
60974;BME280;46846;51.528;5.076;2023-01-16T10:09:27;97506.72;;;3.45;80.90
60974;BME280;46846;51.528;5.076;2023-01-16T10:11:59;97507.56;;;3.46;80.51
60974;BME280;46846;51.528;5.076;2023-01-16T10:27:38;97487.28;;;3.48;81.11
60974;BME280;46846;51.528;5.076;2023-01-16T10:30:12;97477.63;;;3.48;80.79
60974;BME280;46846;51.528;5.076;2023-01-16T10:32:46;97477.06;;;3.43;81.09
60974;BME280;46846;51.528;5.076;2023-01-16T10:35:29;97477.78;;;3.45;80.66
60974;BME280;46846;51.528;5.076;2023-01-16T10:37:57;97473.03;;;3.52;80.74
60974;BME280;46846;51.528;5.076;2023-01-16T10:40:27;97452.63;;;3.55;80.58
60974;BME280;46846;51.528;5.076;2023-01-16T10:42:59;97456.22;;;3.54;80.68
60974;BME280;46846;51.528;5.076;2023-01-16T10:45:44;97444.88;;;3.54;81.06
60974;BME280;46846;51.528;5.076;2023-01-16T10:48:28;97450.28;;;3.51;80.85
60974;BME280;46846;51.528;5.076;2023-01-16T10:51:13;97433.41;;;3.55;80.80
60974;BME280;46846;51.528;5.076;2023-01-16T10:53:38;97427.22;;;3.56;80.92
60974;BME280;46846;51.528;5.076;2023-01-16T10:56:04;97424.94;;;3.50;81.17
60974;BME280;46846;51.528;5.076;2023-01-16T10:58:30;97418.66;;;3.52;81.29
60974;BME280;46846;51.528;5.076;2023-01-16T11:01:00;97417.44;;;3.58;80.77
60974;BME280;46846;51.528;5.076;2023-01-16T11:03:31;97414.16;;;3.54;80.47
60974;BME280;46846;51.528;5.076;2023-01-16T11:06:08;97411.22;;;3.59;80.69
60974;BME280;46846;51.528;5.076;2023-01-16T11:08:34;97405.97;;;3.59;80.76
60974;BME280;46846;51.528;5.076;2023-01-16T11:11:00;97402.81;;;3.54;80.99
60974;BME280;46846;51.528;5.076;2023-01-16T11:13:26;97395.47;;;3.59;81.13
60974;BME280;46846;51.528;5.076;2023-01-16T11:18:55;97381.00;;;3.66;80.33
60974;BME280;46846;51.528;5.076;2023-01-16T11:23:52;97364.19;;;3.69;81.12
60974;BME280;46846;51.528;5.076;2023-01-16T11:26:21;97369.56;;;3.67;80.49
60974;BME280;46846;51.528;5.076;2023-01-16T11:28:46;97359.97;;;3.66;80.41
60974;BME280;46846;51.528;5.076;2023-01-16T11:33:40;97355.56;;;3.67;80.81
60974;BME280;46846;51.528;5.076;2023-01-16T11:36:07;97347.47;;;3.70;80.40
60974;BME280;46846;51.528;5.076;2023-01-16T11:38:33;97340.44;;;3.71;80.72
60974;BME280;46846;51.528;5.076;2023-01-16T11:41:00;97331.91;;;3.67;80.49
60974;BME280;46846;51.528;5.076;2023-01-16T11:43:26;97328.97;;;3.72;80.83
60974;BME280;46846;51.528;5.076;2023-01-16T11:48:45;97321.75;;;3.75;80.50
60974;BME280;46846;51.528;5.076;2023-01-16T11:51:14;97314.50;;;3.79;80.53
60974;BME280;46846;51.528;5.076;2023-01-16T11:53:40;97310.56;;;3.72;80.72
60974;BME280;46846;51.528;5.076;2023-01-16T11:56:11;97301.72;;;3.73;80.71
60974;BME280;46846;51.528;5.076;2023-01-16T11:58:54;97298.16;;;3.74;80.75
60974;BME280;46846;51.528;5.076;2023-01-16T12:04:34;97285.97;;;3.73;80.67
60974;BME280;46846;51.528;5.076;2023-01-16T12:09:52;97280.78;;;3.86;80.90
60974;BME280;46846;51.528;5.076;2023-01-16T12:15:10;97266.72;;;3.72;81.14
60974;BME280;46846;51.528;5.076;2023-01-16T12:17:47;97253.06;;;3.80;81.01
60974;BME280;46846;51.528;5.076;2023-01-16T12:20:17;97255.91;;;3.77;81.06
60974;BME280;46846;51.528;5.076;2023-01-16T12:28:00;97248.03;;;3.77;81.06
60974;BME280;46846;51.528;5.076;2023-01-16T12:38:27;97225.69;;;3.69;81.77
60974;BME280;46846;51.528;5.076;2023-01-16T12:46:38;97211.94;;;3.79;81.13
60974;BME280;46846;51.528;5.076;2023-01-16T12:52:13;97213.44;;;3.83;81.31
60974;BME280;46846;51.528;5.076;2023-01-16T12:57:29;97203.00;;;3.81;81.17
60974;BME280;46846;51.528;5.076;2023-01-16T13:00:04;97200.59;;;3.78;81.14
60974;BME280;46846;51.528;5.076;2023-01-16T13:05:03;97204.94;;;3.92;80.46
60974;BME280;46846;51.528;5.076;2023-01-16T13:07:31;97209.28;;;4.06;81.44
60974;BME280;46846;51.528;5.076;2023-01-16T13:12:44;97210.59;;;3.86;81.39
60974;BME280;46846;51.528;5.076;2023-01-16T13:15:31;97199.13;;;3.87;81.60
60974;BME280;46846;51.528;5.076;2023-01-16T13:18:03;97195.16;;;3.94;81.26
60974;BME280;46846;51.528;5.076;2023-01-16T13:20:30;97202.31;;;3.92;81.15
60974;BME280;46846;51.528;5.076;2023-01-16T13:23:03;97194.16;;;3.82;81.26
60974;BME280;46846;51.528;5.076;2023-01-16T13:25:41;97198.31;;;3.87;81.07
60974;BME280;46846;51.528;5.076;2023-01-16T13:28:18;97197.25;;;3.89;81.32
60974;BME280;46846;51.528;5.076;2023-01-16T13:30:48;97197.44;;;3.86;81.57
60974;BME280;46846;51.528;5.076;2023-01-16T13:33:17;97194.06;;;3.84;81.63
60974;BME280;46846;51.528;5.076;2023-01-16T13:41:11;97188.09;;;3.82;82.23
60974;BME280;46846;51.528;5.076;2023-01-16T13:43:40;97194.00;;;3.86;82.03
60974;BME280;46846;51.528;5.076;2023-01-16T13:46:27;97192.72;;;3.91;81.63
60974;BME280;46846;51.528;5.076;2023-01-16T13:48:53;97189.69;;;3.97;81.22
60974;BME280;46846;51.528;5.076;2023-01-16T13:51:24;97196.81;;;3.95;81.89
60974;BME280;46846;51.528;5.076;2023-01-16T13:53:50;97189.38;;;4.02;81.06
60974;BME280;46846;51.528;5.076;2023-01-16T13:56:19;97176.66;;;4.09;80.87
60974;BME280;46846;51.528;5.076;2023-01-16T13:58:46;97179.81;;;4.01;81.25
60974;BME280;46846;51.528;5.076;2023-01-16T14:06:48;97194.97;;;3.97;81.94
60974;BME280;46846;51.528;5.076;2023-01-16T14:11:58;97181.81;;;3.97;81.55
60974;BME280;46846;51.528;5.076;2023-01-16T14:14:28;97181.81;;;3.97;81.57
60974;BME280;46846;51.528;5.076;2023-01-16T14:17:13;97173.38;;;4.05;81.14
60974;BME280;46846;51.528;5.076;2023-01-16T14:22:16;97174.25;;;4.06;81.41
60974;BME280;46846;51.528;5.076;2023-01-16T14:24:44;97180.03;;;4.11;81.21
60974;BME280;46846;51.528;5.076;2023-01-16T14:27:24;97177.19;;;4.14;81.27
60974;BME280;46846;51.528;5.076;2023-01-16T14:30:00;97177.19;;;4.14;81.10
60974;BME280;46846;51.528;5.076;2023-01-16T14:32:27;97180.56;;;4.16;80.73
60974;BME280;46846;51.528;5.076;2023-01-16T14:34:54;97176.88;;;4.19;81.03
60974;BME280;46846;51.528;5.076;2023-01-16T14:37:22;97177.75;;;4.19;81.01
60974;BME280;46846;51.528;5.076;2023-01-16T14:39:54;97181.84;;;4.23;80.89
60974;BME280;46846;51.528;5.076;2023-01-16T14:42:23;97184.22;;;4.14;80.95
60974;BME280;46846;51.528;5.076;2023-01-16T14:47:59;97186.47;;;4.20;81.02
60974;BME280;46846;51.528;5.076;2023-01-16T14:50:50;97183.63;;;4.23;81.38
60974;BME280;46846;51.528;5.076;2023-01-16T14:53:34;97178.16;;;4.26;80.36
60974;BME280;46846;51.528;5.076;2023-01-16T14:56:25;97175.53;;;4.26;80.60
60974;BME280;46846;51.528;5.076;2023-01-16T15:01:45;97176.16;;;4.30;80.96
60974;BME280;46846;51.528;5.076;2023-01-16T15:04:31;97172.78;;;4.28;80.26
60974;BME280;46846;51.528;5.076;2023-01-16T15:07:02;97175.53;;;4.26;80.46
60974;BME280;46846;51.528;5.076;2023-01-16T15:09:28;97173.31;;;4.33;80.70
60974;BME280;46846;51.528;5.076;2023-01-16T15:14:20;97177.34;;;4.38;80.22
60974;BME280;46846;51.528;5.076;2023-01-16T15:19:58;97174.38;;;4.43;80.44
60974;BME280;46846;51.528;5.076;2023-01-16T15:22:43;97181.50;;;4.41;80.20
60974;BME280;46846;51.528;5.076;2023-01-16T15:27:51;97175.63;;;4.37;79.80
60974;BME280;46846;51.528;5.076;2023-01-16T15:30:20;97171.22;;;4.38;80.12
60974;BME280;46846;51.528;5.076;2023-01-16T15:32:52;97173.84;;;4.38;80.21
60974;BME280;46846;51.528;5.076;2023-01-16T15:35:18;97176.47;;;4.38;80.24
60974;BME280;46846;51.528;5.076;2023-01-16T15:37:49;97182.47;;;4.40;79.89
60974;BME280;46846;51.528;5.076;2023-01-16T15:40:24;97188.69;;;4.39;80.30
60974;BME280;46846;51.528;5.076;2023-01-16T15:42:50;97187.72;;;4.40;80.02
60974;BME280;46846;51.528;5.076;2023-01-16T15:45:34;97190.38;;;4.40;79.61
60974;BME280;46846;51.528;5.076;2023-01-16T15:48:27;97188.69;;;4.39;79.94